createdAt,value
2018-12-29T00:01:05.939Z,-1.80
2018-12-29T00:03:37.885Z,-1.80
2018-12-29T00:06:08.032Z,-1.80
2018-12-29T00:08:38.141Z,-1.90
2018-12-29T00:11:08.249Z,-1.90
2018-12-29T00:13:38.393Z,-2.00
2018-12-29T00:16:08.493Z,-2.00
2018-12-29T00:18:38.617Z,-2.00
2018-12-29T00:21:09.723Z,-1.90
2018-12-29T00:23:39.809Z,-1.90
2018-12-29T00:26:10.797Z,-1.90
2018-12-29T00:28:41.821Z,-1.80
2018-12-29T00:31:12.353Z,-1.80
2018-12-29T00:33:42.455Z,-1.80
2018-12-29T00:36:12.545Z,-1.80
2018-12-29T00:38:42.658Z,-1.80
2018-12-29T00:41:12.745Z,-1.80
2018-12-29T00:43:43.853Z,-1.80
2018-12-29T00:46:13.905Z,-1.90
2018-12-29T00:48:43.997Z,-1.90
2018-12-29T00:51:14.113Z,-1.80
2018-12-29T00:53:44.446Z,-1.80
2018-12-29T00:56:14.567Z,-1.80
2018-12-29T00:58:44.666Z,-1.90
2018-12-29T01:01:14.754Z,-1.90
2018-12-29T01:03:44.846Z,-1.80
2018-12-29T01:06:15.009Z,-1.80
2018-12-29T01:08:45.139Z,-1.90
2018-12-29T01:11:15.322Z,-2.00
2018-12-29T01:13:45.422Z,-2.00
2018-12-29T01:16:15.518Z,-2.10
2018-12-29T01:18:45.651Z,-2.10
2018-12-29T01:21:15.713Z,-2.00
2018-12-29T01:23:45.806Z,-2.00
2018-12-29T01:26:16.790Z,-1.90
2018-12-29T01:28:47.833Z,-1.90
2018-12-29T01:31:17.922Z,-1.90
2018-12-29T01:33:49.010Z,-1.90
2018-12-29T01:36:19.090Z,-2.00
2018-12-29T01:38:49.206Z,-2.00
2018-12-29T01:41:20.330Z,-2.10
2018-12-29T01:43:50.422Z,-2.10
2018-12-29T01:46:20.531Z,-2.10
2018-12-29T01:48:50.630Z,-2.10
2018-12-29T01:51:20.726Z,-2.20
2018-12-29T01:53:50.802Z,-2.10
2018-12-29T01:56:20.890Z,-2.10
2018-12-29T01:58:50.986Z,-2.10
2018-12-29T02:01:22.040Z,-2.00
2018-12-29T02:03:52.150Z,-2.10
2018-12-29T02:06:22.247Z,-2.10
2018-12-29T02:08:54.239Z,-2.10
2018-12-29T02:11:24.323Z,-2.10
2018-12-29T02:13:54.535Z,-2.10
2018-12-29T02:16:24.767Z,-2.20
2018-12-29T02:18:54.891Z,-2.10
2018-12-29T02:21:25.008Z,-2.10
2018-12-29T02:23:55.153Z,-2.20
2018-12-29T02:26:25.262Z,-2.30
2018-12-29T02:28:56.215Z,-2.30
2018-12-29T02:31:26.314Z,-2.20
2018-12-29T02:33:56.406Z,-2.20
2018-12-29T02:36:26.499Z,-2.20
2018-12-29T02:38:56.602Z,-2.10
2018-12-29T02:41:26.694Z,-2.10
2018-12-29T02:43:58.051Z,-2.10
2018-12-29T02:46:28.205Z,-2.10
2018-12-29T02:48:58.306Z,-2.10
2018-12-29T02:51:28.402Z,-2.10
2018-12-29T02:53:58.502Z,-2.20
2018-12-29T02:56:29.570Z,-2.10
2018-12-29T02:58:59.656Z,-2.10
2018-12-29T03:01:29.762Z,-2.10
2018-12-29T03:04:00.862Z,-2.10
2018-12-29T03:06:30.952Z,-2.10
2018-12-29T03:09:01.043Z,-2.10
2018-12-29T03:11:32.139Z,-2.10
2018-12-29T03:14:02.266Z,-2.20
2018-12-29T03:16:32.382Z,-2.10
2018-12-29T03:19:02.534Z,-2.10
2018-12-29T03:21:32.639Z,-2.20
2018-12-29T03:24:02.752Z,-2.20
2018-12-29T03:26:32.838Z,-2.10
2018-12-29T03:29:02.934Z,-2.20
2018-12-29T03:31:33.991Z,-2.20
2018-12-29T03:34:04.123Z,-2.20
2018-12-29T03:36:35.154Z,-2.30
2018-12-29T03:39:07.191Z,-2.20
2018-12-29T03:41:37.289Z,-2.20
2018-12-29T03:44:07.379Z,-2.20
2018-12-29T03:46:37.469Z,-2.20
2018-12-29T03:49:07.642Z,-2.10
2018-12-29T03:51:37.980Z,-2.10
2018-12-29T03:54:08.095Z,-2.10
2018-12-29T03:56:39.171Z,-2.00
2018-12-29T03:59:09.260Z,-2.00
2018-12-29T04:01:40.371Z,-2.00
2018-12-29T04:04:10.454Z,-2.00
2018-12-29T04:06:40.552Z,-2.00
2018-12-29T04:09:34.914Z,-2.00
2018-12-29T04:12:12.550Z,-2.00
2018-12-29T04:14:43.544Z,-2.00
2018-12-29T04:17:16.587Z,-2.00
2018-12-29T04:19:47.614Z,-2.00
2018-12-29T04:22:17.703Z,-2.00
2018-12-29T04:24:48.778Z,-2.00
2018-12-29T04:27:18.899Z,-1.90
2018-12-29T04:29:49.011Z,-1.90
2018-12-29T04:32:19.099Z,-1.90
2018-12-29T04:34:49.183Z,-1.90
2018-12-29T04:37:19.623Z,-1.80
2018-12-29T04:39:50.611Z,-1.80
2018-12-29T04:42:20.701Z,-1.80
2018-12-29T04:44:50.803Z,-1.80
2018-12-29T04:47:20.899Z,-1.80
2018-12-29T04:49:51.255Z,-1.80
2018-12-29T04:52:22.336Z,-1.80
2018-12-29T04:54:52.422Z,-1.80
2018-12-29T04:57:22.568Z,-1.80
2018-12-29T04:59:52.603Z,-1.90
2018-12-29T05:02:22.687Z,-1.90
2018-12-29T05:04:53.740Z,-1.90
2018-12-29T05:07:39.115Z,-1.90
2018-12-29T05:10:11.219Z,-1.90
2018-12-29T05:12:41.308Z,-1.90
2018-12-29T05:15:11.427Z,-1.90
2018-12-29T05:17:41.519Z,-1.90
2018-12-29T05:20:11.603Z,-1.90
2018-12-29T05:22:41.685Z,-1.90
2018-12-29T05:25:11.791Z,-1.90
2018-12-29T05:27:41.888Z,-1.90
2018-12-29T05:30:11.971Z,-1.90
2018-12-29T05:32:42.971Z,-1.90
2018-12-29T05:35:13.075Z,-1.90
2018-12-29T05:37:43.181Z,-1.90
2018-12-29T05:40:14.815Z,-1.90
2018-12-29T05:42:44.917Z,-1.90
2018-12-29T05:45:15.023Z,-1.80
2018-12-29T05:47:45.122Z,-1.80
2018-12-29T05:50:16.159Z,-1.80
2018-12-29T05:52:46.250Z,-1.80
2018-12-29T05:55:16.333Z,-1.80
2018-12-29T05:57:46.420Z,-1.80
2018-12-29T06:00:16.521Z,-1.80
2018-12-29T06:02:46.619Z,-1.80
2018-12-29T06:05:17.711Z,-1.80
2018-12-29T06:07:47.807Z,-1.80
2018-12-29T06:10:22.336Z,-1.80
2018-12-29T06:12:52.413Z,-1.80
2018-12-29T06:15:24.443Z,-1.80
2018-12-29T06:17:54.549Z,-1.80
2018-12-29T06:20:24.640Z,-1.80
2018-12-29T06:22:54.747Z,-1.80
2018-12-29T06:25:24.840Z,-1.80
2018-12-29T06:27:54.931Z,-1.80
2018-12-29T06:30:25.467Z,-1.70
2018-12-29T06:32:58.549Z,-1.70
2018-12-29T06:35:29.555Z,-1.70
2018-12-29T06:37:59.679Z,-1.70
2018-12-29T06:40:30.731Z,-1.70
2018-12-29T06:43:00.827Z,-1.70
2018-12-29T06:45:31.823Z,-1.70
2018-12-29T06:48:02.943Z,-1.70
2018-12-29T06:50:33.027Z,-1.70
2018-12-29T06:53:03.131Z,-1.60
2018-12-29T06:55:33.391Z,-1.60
2018-12-29T06:58:03.496Z,-1.60
2018-12-29T07:00:33.619Z,-1.60
2018-12-29T07:03:04.639Z,-1.60
2018-12-29T07:05:34.738Z,-1.60
2018-12-29T07:08:04.839Z,-1.60
2018-12-29T07:10:34.940Z,-1.50
2018-12-29T07:13:05.031Z,-1.50
2018-12-29T07:15:35.124Z,-1.50
2018-12-29T07:18:06.272Z,-1.50
2018-12-29T07:20:36.339Z,-1.60
2018-12-29T07:23:06.421Z,-1.50
2018-12-29T07:25:36.575Z,-1.50
2018-12-29T07:28:06.844Z,-1.50
2018-12-29T07:30:36.957Z,-1.40
2018-12-29T07:33:07.035Z,-1.40
2018-12-29T07:35:37.371Z,-1.40
2018-12-29T07:38:07.487Z,-1.40
2018-12-29T07:40:38.515Z,-1.30
2018-12-29T07:43:09.586Z,-1.30
2018-12-29T07:45:41.115Z,-1.30
2018-12-29T07:48:13.390Z,-1.30
2018-12-29T07:50:43.523Z,-1.20
2018-12-29T07:53:14.621Z,-1.20
2018-12-29T07:55:44.703Z,-1.10
2018-12-29T07:58:16.783Z,-1.00
2018-12-29T08:00:46.882Z,-0.90
2018-12-29T08:03:16.971Z,-0.80
2018-12-29T08:05:47.083Z,-0.70
2018-12-29T08:08:17.168Z,-0.70
2018-12-29T08:10:49.115Z,-0.70
2018-12-29T08:13:19.203Z,-0.70
2018-12-29T08:15:49.295Z,-0.80
2018-12-29T08:18:19.407Z,-0.90
2018-12-29T08:20:49.496Z,-0.90
2018-12-29T08:23:19.589Z,-0.90
2018-12-29T08:25:49.677Z,-0.90
2018-12-29T08:28:20.771Z,-0.90
2018-12-29T08:30:51.107Z,-0.90
2018-12-29T08:33:21.186Z,-0.90
2018-12-29T08:35:51.267Z,-0.90
2018-12-29T08:38:25.947Z,-0.80
2018-12-29T08:40:58.748Z,-0.80
2018-12-29T08:43:28.834Z,-0.70
2018-12-29T08:45:58.915Z,-0.60
2018-12-29T08:48:29.001Z,-0.60
2018-12-29T08:50:59.156Z,-0.60
2018-12-29T08:53:29.251Z,-0.60
2018-12-29T08:55:59.347Z,-0.60
2018-12-29T08:58:29.433Z,-0.50
2018-12-29T09:00:59.519Z,-0.50
2018-12-29T09:03:29.615Z,-0.50
2018-12-29T09:05:59.807Z,-0.40
2018-12-29T09:08:29.933Z,-0.30
2018-12-29T09:11:00.011Z,-0.30
2018-12-29T09:13:31.134Z,-0.30
2018-12-29T09:16:01.271Z,-0.20
2018-12-29T09:18:31.392Z,-0.20
2018-12-29T09:21:01.475Z,-0.20
2018-12-29T09:23:31.816Z,-0.20
2018-12-29T09:26:01.927Z,-0.20
2018-12-29T09:28:32.073Z,-0.20
2018-12-29T09:31:03.415Z,-0.10
2018-12-29T09:33:34.475Z,-0.10
2018-12-29T09:36:08.936Z,-0.10
2018-12-29T09:38:39.053Z,-0.10
2018-12-29T09:41:09.204Z,-0.10
2018-12-29T09:43:39.352Z,-0.10
2018-12-29T09:46:09.493Z,0.00
2018-12-29T09:48:39.725Z,-0.10
2018-12-29T09:51:09.890Z,0.00
2018-12-29T09:53:40.871Z,0.20
2018-12-29T09:56:11.919Z,0.40
2018-12-29T09:58:41.996Z,0.50
2018-12-29T10:01:13.997Z,0.50
2018-12-29T10:03:46.144Z,0.50
2018-12-29T10:06:17.251Z,0.50
2018-12-29T10:08:47.403Z,0.50
2018-12-29T10:11:17.549Z,0.50
2018-12-29T10:13:47.623Z,0.60
2018-12-29T10:16:17.795Z,0.60
2018-12-29T10:18:48.831Z,0.60
2018-12-29T10:21:18.927Z,0.60
2018-12-29T10:23:49.989Z,0.60
2018-12-29T10:26:21.099Z,0.60
2018-12-29T10:28:51.254Z,0.60
2018-12-29T10:31:21.354Z,0.60
2018-12-29T10:33:52.527Z,0.50
2018-12-29T10:36:22.693Z,0.60
2018-12-29T10:38:54.003Z,0.60
2018-12-29T10:41:24.111Z,0.70
2018-12-29T10:43:54.175Z,0.70
2018-12-29T10:46:25.159Z,0.70
2018-12-29T10:48:56.123Z,0.80
2018-12-29T10:51:26.195Z,0.80
2018-12-29T10:53:56.287Z,0.90
2018-12-29T10:56:26.363Z,0.90
2018-12-29T10:58:56.503Z,0.80
2018-12-29T11:01:27.559Z,0.90
2018-12-29T11:03:57.751Z,0.90
2018-12-29T11:06:28.755Z,0.90
2018-12-29T11:08:58.831Z,0.90
2018-12-29T11:11:28.946Z,0.90
2018-12-29T11:14:00.959Z,1.00
2018-12-29T11:16:31.039Z,0.90
2018-12-29T11:19:01.177Z,0.90
2018-12-29T11:21:31.350Z,0.90
2018-12-29T11:24:01.482Z,0.90
2018-12-29T11:26:31.557Z,0.90
2018-12-29T11:29:01.639Z,0.90
2018-12-29T11:31:31.747Z,0.90
2018-12-29T11:34:01.823Z,1.00
2018-12-29T11:36:31.933Z,1.10
2018-12-29T11:39:02.013Z,1.20
2018-12-29T11:41:33.074Z,1.20
2018-12-29T11:44:03.159Z,1.20
2018-12-29T11:46:33.255Z,1.30
2018-12-29T11:49:03.371Z,1.30
2018-12-29T11:51:34.368Z,1.40
2018-12-29T11:54:10.656Z,1.40
2018-12-29T11:56:41.731Z,1.30
2018-12-29T11:59:21.960Z,1.30
2018-12-29T12:01:56.239Z,1.30
2018-12-29T12:04:26.323Z,1.30
2018-12-29T12:06:58.359Z,1.20
2018-12-29T12:09:30.363Z,1.30
2018-12-29T12:12:16.853Z,1.30
2018-12-29T12:14:46.923Z,1.30
2018-12-29T12:17:17.099Z,1.30
2018-12-29T12:19:49.113Z,1.30
2018-12-29T12:22:25.999Z,1.30
2018-12-29T12:24:56.128Z,1.40
2018-12-29T12:27:34.297Z,1.40
2018-12-29T12:30:05.975Z,1.40
2018-12-29T12:32:37.659Z,1.40
2018-12-29T12:35:16.359Z,1.40
2018-12-29T12:37:49.949Z,1.40
2018-12-29T12:40:22.963Z,1.40
2018-12-29T12:42:59.127Z,1.40
2018-12-29T12:45:31.215Z,1.40
2018-12-29T12:48:04.987Z,1.40
2018-12-29T12:50:33.128Z,1.40
2018-12-29T12:53:03.232Z,1.40
2018-12-29T12:55:34.763Z,1.40
2018-12-29T12:58:05.459Z,1.40
2018-12-29T13:00:42.851Z,1.40
2018-12-29T13:03:13.996Z,1.40
2018-12-29T13:05:44.179Z,1.40
2018-12-29T13:08:15.633Z,1.40
2018-12-29T13:10:45.791Z,1.40
2018-12-29T13:13:17.100Z,1.40
2018-12-29T13:15:48.191Z,1.40
2018-12-29T13:18:19.347Z,1.40
2018-12-29T13:20:51.450Z,1.40
2018-12-29T13:23:21.459Z,1.30
2018-12-29T13:25:53.535Z,1.40
2018-12-29T13:28:23.862Z,1.40
2018-12-29T13:30:54.935Z,1.50
2018-12-29T13:33:31.836Z,1.50
2018-12-29T13:36:06.483Z,1.50
2018-12-29T13:38:37.706Z,1.40
2018-12-29T13:41:09.694Z,1.40
2018-12-29T13:43:44.663Z,1.30
2018-12-29T13:46:20.922Z,1.30
2018-12-29T13:48:51.026Z,1.20
2018-12-29T13:51:21.174Z,1.20
2018-12-29T13:53:51.438Z,1.20
2018-12-29T13:56:24.574Z,1.10
2018-12-29T13:58:54.682Z,1.20
2018-12-29T14:01:24.762Z,1.10
2018-12-29T14:03:58.490Z,1.20
2018-12-29T14:06:28.571Z,1.10
2018-12-29T14:08:59.910Z,1.10
2018-12-29T14:11:30.570Z,1.10
2018-12-29T14:14:01.666Z,1.10
2018-12-29T14:16:32.298Z,1.10
2018-12-29T14:19:02.974Z,1.10
2018-12-29T14:21:33.150Z,1.10
2018-12-29T14:24:09.450Z,1.00
2018-12-29T14:26:39.564Z,1.00
2018-12-29T14:29:09.743Z,1.00
2018-12-29T14:31:39.878Z,1.00
2018-12-29T14:34:09.954Z,1.00
2018-12-29T14:36:40.119Z,1.00
2018-12-29T14:39:10.450Z,1.00
2018-12-29T14:41:46.440Z,1.00
2018-12-29T14:44:17.536Z,1.00
2018-12-29T14:46:49.638Z,1.00
2018-12-29T14:49:20.048Z,0.90
2018-12-29T14:51:50.239Z,0.90
2018-12-29T14:54:20.405Z,0.90
2018-12-29T14:56:51.707Z,0.90
2018-12-29T14:59:22.139Z,0.90
2018-12-29T15:02:01.031Z,0.80
2018-12-29T15:04:32.335Z,0.80
2018-12-29T15:07:03.387Z,0.80
2018-12-29T15:09:35.588Z,0.80
2018-12-29T15:12:05.801Z,0.80
2018-12-29T15:14:36.791Z,0.80
2018-12-29T15:17:08.039Z,0.70
2018-12-29T15:19:39.105Z,0.80
2018-12-29T15:22:15.315Z,0.80
2018-12-29T15:24:46.680Z,0.80
2018-12-29T15:27:23.235Z,0.80
2018-12-29T15:29:53.427Z,0.70
2018-12-29T15:32:28.440Z,0.70
2018-12-29T15:35:00.159Z,0.70
2018-12-29T15:37:32.168Z,0.70
2018-12-29T15:40:02.293Z,0.70
2018-12-29T15:42:33.132Z,0.70
2018-12-29T15:45:04.679Z,0.70
2018-12-29T15:47:34.855Z,0.70
2018-12-29T15:50:07.975Z,0.70
2018-12-29T15:52:38.079Z,0.70
2018-12-29T15:55:13.211Z,0.70
2018-12-29T15:57:43.855Z,0.70
2018-12-29T16:00:16.854Z,0.70
2018-12-29T16:02:46.938Z,0.70
2018-12-29T16:05:24.861Z,0.70
2018-12-29T16:08:02.060Z,0.70
2018-12-29T16:10:32.159Z,0.70
2018-12-29T16:13:02.306Z,0.70
2018-12-29T16:15:32.442Z,0.70
2018-12-29T16:18:08.460Z,0.80
2018-12-29T16:20:40.174Z,0.70
2018-12-29T16:23:11.259Z,0.70
2018-12-29T16:25:42.515Z,0.70
2018-12-29T16:28:12.755Z,0.70
2018-12-29T16:30:45.831Z,0.70
2018-12-29T16:33:15.912Z,0.70
2018-12-29T16:35:46.875Z,0.70
2018-12-29T16:38:17.335Z,0.70
2018-12-29T16:40:47.564Z,0.70
2018-12-29T16:43:19.630Z,0.60
2018-12-29T16:45:55.683Z,0.60
2018-12-29T16:48:26.903Z,0.60
2018-12-29T16:51:02.345Z,0.60
2018-12-29T16:53:44.459Z,0.60
2018-12-29T16:56:21.508Z,0.60
2018-12-29T16:58:50.307Z,0.60
2018-12-29T17:01:30.267Z,0.60
2018-12-29T17:04:07.235Z,0.60
2018-12-29T17:06:38.415Z,0.70
2018-12-29T17:09:08.564Z,0.70
2018-12-29T17:11:52.018Z,0.70
2018-12-29T17:14:23.349Z,0.70
2018-12-29T17:16:53.447Z,0.70
2018-12-29T17:19:24.624Z,0.70
2018-12-29T17:21:56.633Z,0.70
2018-12-29T17:24:26.800Z,0.80
2018-12-29T17:26:58.343Z,0.80
2018-12-29T17:29:28.617Z,0.80
2018-12-29T17:31:59.632Z,0.80
2018-12-29T17:34:31.695Z,0.80
2018-12-29T17:37:15.112Z,0.80
2018-12-29T17:39:47.391Z,0.80
2018-12-29T17:42:18.143Z,0.80
2018-12-29T17:44:50.296Z,0.90
2018-12-29T17:47:20.479Z,0.90
2018-12-29T17:49:50.591Z,0.90
2018-12-29T17:52:20.675Z,0.90
2018-12-29T17:54:50.915Z,0.90
2018-12-29T17:57:28.780Z,0.90
2018-12-29T18:00:07.780Z,0.90
2018-12-29T18:02:47.673Z,0.90
2018-12-29T18:05:25.456Z,0.90
2018-12-29T18:07:55.631Z,0.90
2018-12-29T18:10:26.468Z,1.00
2018-12-29T18:12:56.650Z,0.90
2018-12-29T18:15:33.564Z,1.00
2018-12-29T18:18:09.456Z,1.00
2018-12-29T18:21:01.194Z,1.00
2018-12-29T18:23:31.629Z,1.00
2018-12-29T18:26:01.709Z,1.00
2018-12-29T18:28:31.877Z,1.00
2018-12-29T18:31:10.924Z,1.00
2018-12-29T18:33:41.018Z,1.00
2018-12-29T18:36:18.518Z,1.10
2018-12-29T18:38:50.239Z,1.10
2018-12-29T18:41:22.291Z,1.10
2018-12-29T18:43:52.382Z,1.10
2018-12-29T18:46:24.559Z,1.10
2018-12-29T18:48:54.679Z,1.10
2018-12-29T18:51:25.851Z,1.10
2018-12-29T18:53:55.987Z,1.10
2018-12-29T18:56:26.366Z,1.10
2018-12-29T18:58:56.463Z,1.20
2018-12-29T19:01:26.667Z,1.20
2018-12-29T19:03:57.767Z,1.20
2018-12-29T19:06:29.839Z,1.20
2018-12-29T19:08:59.998Z,1.20
2018-12-29T19:11:31.379Z,1.20
2018-12-29T19:14:08.610Z,1.20
2018-12-29T19:16:38.690Z,1.20
2018-12-29T19:19:09.658Z,1.20
2018-12-29T19:21:39.736Z,1.20
2018-12-29T19:24:11.123Z,1.20
2018-12-29T19:26:50.651Z,1.20
2018-12-29T19:29:20.754Z,1.20
2018-12-29T19:31:52.510Z,1.20
2018-12-29T19:34:22.630Z,1.20
2018-12-29T19:36:52.718Z,1.20
2018-12-29T19:39:23.486Z,1.20
2018-12-29T19:41:56.659Z,1.20
2018-12-29T19:44:29.383Z,1.20
2018-12-29T19:47:02.900Z,1.20
2018-12-29T19:49:34.219Z,1.20
2018-12-29T19:52:04.330Z,1.20
2018-12-29T19:54:42.167Z,1.20
2018-12-29T19:57:13.587Z,1.20
2018-12-29T19:59:48.102Z,1.20
2018-12-29T20:02:37.863Z,1.20
2018-12-29T20:05:14.263Z,1.20
2018-12-29T20:07:44.366Z,1.20
2018-12-29T20:10:14.442Z,1.20
2018-12-29T20:12:46.402Z,1.20
2018-12-29T20:15:17.418Z,1.20
2018-12-29T20:18:05.630Z,1.30
2018-12-29T20:20:36.692Z,1.20
2018-12-29T20:23:06.780Z,1.30
2018-12-29T20:25:36.861Z,1.30
2018-12-29T20:28:06.946Z,1.20
2018-12-29T20:30:38.015Z,1.20
2018-12-29T20:33:08.091Z,1.10
2018-12-29T20:35:39.083Z,1.00
2018-12-29T20:38:11.366Z,1.00
2018-12-29T20:40:41.443Z,0.80
2018-12-29T20:43:12.458Z,0.70
2018-12-29T20:45:42.530Z,0.70
2018-12-29T20:48:13.679Z,0.70
2018-12-29T20:50:45.155Z,0.70
2018-12-29T20:53:15.280Z,0.70
2018-12-29T20:55:47.420Z,0.60
2018-12-29T20:58:18.768Z,0.70
2018-12-29T21:00:49.270Z,0.70
2018-12-29T21:03:21.307Z,0.60
2018-12-29T21:05:58.702Z,0.70
2018-12-29T21:08:30.774Z,0.70
2018-12-29T21:11:00.859Z,0.60
2018-12-29T21:13:33.669Z,0.60
2018-12-29T21:16:14.844Z,0.60
2018-12-29T21:18:53.042Z,0.60
2018-12-29T21:21:32.206Z,0.60
2018-12-29T21:24:12.434Z,0.60
2018-12-29T21:26:43.046Z,0.60
2018-12-29T21:29:21.074Z,0.60
2018-12-29T21:31:51.207Z,0.60
2018-12-29T21:34:23.178Z,0.60
2018-12-29T21:36:54.183Z,0.70
2018-12-29T21:39:24.271Z,0.70
2018-12-29T21:41:55.256Z,0.70
2018-12-29T21:44:33.362Z,0.60
2018-12-29T21:47:03.475Z,0.60
2018-12-29T21:49:34.824Z,0.60
2018-12-29T21:52:08.950Z,0.60
2018-12-29T21:54:39.033Z,0.60
2018-12-29T21:57:10.099Z,0.60
2018-12-29T21:59:40.195Z,0.50
2018-12-29T22:02:16.055Z,0.50
2018-12-29T22:04:46.367Z,0.50
2018-12-29T22:07:16.451Z,0.50
2018-12-29T22:09:48.449Z,0.50
2018-12-29T22:12:22.027Z,0.50
2018-12-29T22:14:52.095Z,0.50
2018-12-29T22:17:24.015Z,0.50
2018-12-29T22:19:54.096Z,0.50
2018-12-29T22:22:26.135Z,0.50
2018-12-29T22:24:56.339Z,0.50
2018-12-29T22:27:27.383Z,0.60
2018-12-29T22:29:57.572Z,0.60
2018-12-29T22:32:28.544Z,0.60
2018-12-29T22:34:58.855Z,0.60
2018-12-29T22:37:29.895Z,0.60
2018-12-29T22:39:59.999Z,0.70
2018-12-29T22:42:31.264Z,0.60
2018-12-29T22:45:03.464Z,0.70
2018-12-29T22:47:33.711Z,0.70
2018-12-29T22:50:06.103Z,0.80
2018-12-29T22:52:37.187Z,0.80
2018-12-29T22:55:08.256Z,0.80
2018-12-29T22:57:39.984Z,0.90
2018-12-29T23:00:14.485Z,0.90
2018-12-29T23:02:50.743Z,0.90
2018-12-29T23:05:22.059Z,0.90
2018-12-29T23:07:57.884Z,1.00
2018-12-29T23:10:29.100Z,1.00
2018-12-29T23:13:00.521Z,1.10
2018-12-29T23:15:38.668Z,1.10
2018-12-29T23:18:08.759Z,1.10
2018-12-29T23:20:39.219Z,1.20
2018-12-29T23:23:10.243Z,1.20
2018-12-29T23:25:40.323Z,1.20
2018-12-29T23:28:11.383Z,1.20
2018-12-29T23:30:53.455Z,1.20
2018-12-29T23:33:23.551Z,1.20
2018-12-29T23:36:05.268Z,1.30
2018-12-29T23:38:41.220Z,1.30
2018-12-29T23:41:13.319Z,1.30
2018-12-29T23:43:44.834Z,1.30
2018-12-29T23:46:16.820Z,1.30
2018-12-29T23:48:49.920Z,1.30
2018-12-29T23:51:21.024Z,1.40
2018-12-29T23:53:51.112Z,1.40
2018-12-29T23:56:22.465Z,1.40
2018-12-29T23:58:52.566Z,1.40
